Data for 12/18/2015

Time Sea-Level Adjusted Pressure Absolute Pressure Temperature Relative Humidity Dew Point   
(mb) (inHg) (mb) (inHg) (C) (F) (%) (C) (F)
00:05 1014 29.94 844 24.92 -8.4 16.9 75 -12.1 10.3
00:10 1014 29.94 844 24.92 -8.4 16.8 75 -12 10.3
00:15 1014 29.94 844 24.92 -8.3 17 74 -12.1 10.2
00:20 1014 29.94 844 24.92 -8.2 17.2 74 -12.1 10.2
00:25 1014 29.94 844 24.92 -8.2 17.3 74 -12.1 10.2
00:30 1014 29.94 844 24.92 -8.1 17.4 74 -12 10.3
00:35 1014 29.94 844 24.92 -8.1 17.4 75 -11.9 10.6
00:40 1014 29.94 843 24.89 -8.1 17.4 75 -11.7 10.9
00:45 1014 29.94 843 24.89 -8.1 17.4 77 -11.5 11.3
00:50 1014 29.94 843 24.89 -8.1 17.4 78 -11.4 11.5
00:55 1014 29.94 843 24.89 -8.3 17.1 80 -11.2 11.8
01:00 1014 29.94 843 24.89 -8.4 16.9 79 -11.4 11.5
01:05 1014 29.94 843 24.89 -8.4 16.9 78 -11.6 11.1
01:10 1014 29.94 843 24.89 -8.2 17.2 78 -11.4 11.4
01:15 1014 29.94 843 24.89 -8.1 17.5 77 -11.4 11.5
01:20 1014 29.94 843 24.89 -8 17.5 77 -11.3 11.6
01:25 1014 29.94 843 24.89 -8 17.5 78 -11.2 11.8
01:30 1014 29.94 843 24.89 -7.9 17.7 77 -11.3 11.7
01:35 1014 29.94 843 24.89 -7.8 18 77 -11.1 11.9
01:40 1014 29.94 843 24.89 -7.6 18.3 77 -11 12.2
01:45 1014 29.94 843 24.89 -7.5 18.5 77 -10.9 12.4
01:50 1014 29.94 843 24.89 -7.6 18.2 77 -10.9 12.3
01:55 1014 29.94 843 24.89 -7.6 18.4 77 -11 12.2
02:00 1014 29.94 843 24.89 -7.6 18.3 77 -11 12.2
02:05 1014 29.94 843 24.89 -7.5 18.5 76 -11 12.2
02:10 1014 29.94 843 24.89 -7.3 18.8 76 -10.8 12.6
02:15 1014 29.94 843 24.89 -7.3 19 74 -11.1 11.9
02:20 1014 29.94 843 24.89 -7.3 18.9 75 -10.9 12.3
02:25 1014 29.94 843 24.89 -7.5 18.6 77 -10.9 12.4
02:30 1013 29.91 843 24.89 -7.7 18.1 78 -10.9 12.5
02:35 1013 29.91 843 24.89 -7.8 17.9 79 -10.9 12.4
02:40 1013 29.91 843 24.89 -8 17.6 80 -10.8 12.5
02:45 1013 29.91 842 24.86 -8.1 17.4 81 -10.8 12.6
02:50 1013 29.91 842 24.86 -8 17.5 81 -10.7 12.7
02:55 1013 29.91 842 24.86 -8 17.7 80 -10.9 12.5
03:00 1013 29.91 842 24.86 -7.8 18 78 -11.1 12.1
03:05 1013 29.91 842 24.86 -7.5 18.5 75 -11.2 11.9
03:10 1013 29.91 842 24.86 -7.3 18.9 75 -10.9 12.3
03:15 1013 29.91 842 24.86 -7.4 18.6 78 -10.7 12.8
03:20 1013 29.91 842 24.86 -7.4 18.6 78 -10.6 13
03:25 1013 29.91 842 24.86 -7.6 18.4 80 -10.4 13.3
03:30 1013 29.91 842 24.86 -7.7 18.2 80 -10.5 13.1
03:35 1013 29.91 842 24.86 -7.7 18.2 80 -10.5 13.1
03:40 1013 29.91 842 24.86 -7.6 18.3 80 -10.5 13.1
03:45 1013 29.91 842 24.86 -7.4 18.8 79 -10.5 13.1
03:50 1013 29.91 842 24.86 -7.2 19.1 78 -10.3 13.4
03:55 1012 29.88 842 24.86 -7.1 19.3 78 -10.3 13.4
04:00 1012 29.88 842 24.86 -7 19.4 78 -10.2 13.6
04:05 1012 29.88 842 24.86 -7 19.4 78 -10.3 13.5
04:10 1013 29.91 842 24.86 -6.9 19.5 78 -10.1 13.7
04:15 1013 29.91 842 24.86 -6.7 19.9 76 -10.2 13.6
04:20 1013 29.91 842 24.86 -6.3 20.6 74 -10.2 13.7
04:25 1013 29.91 842 24.86 -6.2 20.8 73 -10.2 13.6
04:30 1013 29.91 842 24.86 -6.5 20.3 75 -10.3 13.5
04:35 1013 29.91 842 24.86 -6.7 20 77 -10.1 13.9
04:40 1013 29.91 842 24.86 -6.9 19.6 80 -9.9 14.2
04:45 1012 29.88 842 24.86 -7 19.4 80 -9.8 14.3
04:50 1012 29.88 842 24.86 -7.1 19.3 80 -9.9 14.2
04:55 1012 29.88 842 24.86 -7 19.4 81 -9.7 14.5
05:00 1012 29.88 841 24.83 -7.1 19.2 83 -9.6 14.7
05:05 1012 29.88 841 24.83 -7.2 19 82 -9.8 14.3
05:10 1012 29.88 841 24.83 -7.3 19 82 -9.8 14.3
05:15 1012 29.88 841 24.83 -7.5 18.5 83 -9.9 14.2
05:20 1012 29.88 841 24.83 -7.7 18.1 84 -10 14
05:25 1012 29.88 841 24.83 -7.7 18.1 83 -10.1 13.9
05:30 1012 29.88 841 24.83 -7.7 18.1 83 -10.1 13.9
05:35 1012 29.88 841 24.83 -7.6 18.2 83 -10 14
05:40 1012 29.88 841 24.83 -7.5 18.5 82 -10 13.9
05:45 1012 29.88 841 24.83 -7.3 18.9 81 -10 14
05:50 1012 29.88 841 24.83 -7.1 19.3 80 -9.9 14.2
05:55 1012 29.88 841 24.83 -7 19.4 81 -9.8 14.4
06:00 1012 29.88 841 24.83 -6.8 19.8 80 -9.7 14.5
06:05 1012 29.88 841 24.83 -6.7 20 80 -9.6 14.7
06:10 1012 29.88 841 24.83 -6.7 20 81 -9.5 14.9
06:15 1012 29.88 841 24.83 -6.7 20 80 -9.5 14.9
06:20 1012 29.88 841 24.83 -6.6 20.2 80 -9.5 14.8
06:25 1012 29.88 841 24.83 -6.5 20.4 79 -9.5 14.8
06:30 1012 29.88 841 24.83 -6.5 20.3 80 -9.5 15
06:35 1012 29.88 841 24.83 -6.6 20.1 80 -9.4 15
06:40 1012 29.88 841 24.83 -6.7 20 81 -9.4 15.1
06:45 1012 29.88 841 24.83 -6.6 20.1 82 -9.2 15.4
06:50 1012 29.88 841 24.83 -6.5 20.3 82 -9 15.7
06:55 1012 29.88 841 24.83 -6.7 20 83 -9 15.7
07:00 1012 29.88 841 24.83 -6.6 20.1 82 -9.2 15.5
07:05 1012 29.88 841 24.83 -6.2 20.8 80 -9.1 15.6
07:10 1012 29.88 841 24.83 -6.2 20.8 81 -9 15.9
07:15 1012 29.88 841 24.83 -6.2 20.8 81 -9 15.8
07:20 1012 29.88 841 24.83 -6.2 20.9 81 -8.9 15.9
07:25 1012 29.88 841 24.83 -6 21.3 79 -9.1 15.7
07:30 1012 29.88 841 24.83 -5.7 21.7 78 -8.9 16
07:35 1012 29.88 841 24.83 -5.5 22 77 -8.9 16
07:40 1012 29.88 841 24.83 -5.5 22 78 -8.7 16.3
07:45 1012 29.88 841 24.83 -5.6 21.9 80 -8.6 16.5
07:50 1012 29.88 841 24.83 -5.6 22 79 -8.7 16.4
07:55 1012 29.88 841 24.83 -5.3 22.5 77 -8.6 16.4
08:00 1012 29.88 841 24.83 -5.3 22.5 79 -8.4 17
08:05 1012 29.88 841 24.83 -4.9 23.2 78 -8.2 17.2
08:10 1012 29.88 841 24.83 -4.6 23.8 77 -8 17.6
08:15 1012 29.88 841 24.83 -4.5 23.9 77 -8 17.7
08:20 1012 29.88 842 24.86 -4.4 24 77 -7.9 17.8
08:25 1012 29.88 842 24.86 -4.5 24 77 -7.9 17.8
08:30 1012 29.88 842 24.86 -4.6 23.7 78 -7.9 17.7
08:35 1012 29.88 842 24.86 -4.5 23.9 78 -7.7 18.1
08:40 1012 29.88 842 24.86 -4.4 24.1 78 -7.7 18.2
08:45 1012 29.88 842 24.86 -4.4 24 78 -7.8 18
08:50 1013 29.91 842 24.86 -4.6 23.8 78 -7.8 18
08:55 1012 29.88 842 24.86 -4.2 24.4 76 -7.8 17.9
09:00 1013 29.91 842 24.86 -3.9 25 78 -7.2 19
09:05 1012 29.88 842 24.86 -3.9 25 76 -7.4 18.6
09:10 1012 29.88 842 24.86 -4.1 24.6 79 -7.2 19.1
09:15 1013 29.91 842 24.86 -4.1 24.6 79 -7.2 19.1
09:20 1013 29.91 842 24.86 -4.1 24.7 80 -7 19.5
09:25 1013 29.91 842 24.86 -3.8 25.1 78 -7.1 19.1
09:30 1013 29.91 842 24.86 -3.5 25.7 77 -7 19.4
09:35 1012 29.88 842 24.86 -3.3 26.1 76 -6.9 19.5
09:40 1012 29.88 842 24.86 -3.2 26.2 78 -6.6 20.2
09:45 1012 29.88 842 24.86 -3.2 26.2 78 -6.6 20.2
09:50 1013 29.91 842 24.86 -3.3 26 78 -6.5 20.2
09:55 1013 29.91 842 24.86 -3 26.5 78 -6.3 20.7
10:00 1013 29.91 842 24.86 -2.8 27 78 -6.1 21.1
10:05 1012 29.88 842 24.86 -2.6 27.3 78 -6 21.3
10:10 1013 29.91 842 24.86 -2.5 27.5 78 -5.9 21.5
10:15 1012 29.88 842 24.86 -2.4 27.8 78 -5.7 21.8
10:20 1012 29.88 842 24.86 -2.3 27.9 78 -5.6 21.8
10:25 1012 29.88 842 24.86 -2.2 28.1 77 -5.6 21.9
10:30 1012 29.88 842 24.86 -1.9 28.6 76 -5.6 22
10:35 1012 29.88 842 24.86 -1.7 28.9 76 -5.4 22.2
10:40 1012 29.88 841 24.83 -1.6 29.1 75 -5.4 22.2
10:45 1012 29.88 842 24.86 -1.4 29.4 75 -5.4 22.3
10:50 1012 29.88 842 24.86 -1.3 29.6 74 -5.4 22.3
10:55 1013 29.91 842 24.86 -1.2 29.8 74 -5.3 22.4
11:00 1013 29.91 842 24.86 -0.9 30.3 72 -5.3 22.4
11:05 1013 29.91 842 24.86 -0.7 30.8 72 -5.1 22.8
11:10 1013 29.91 842 24.86 -0.7 30.8 73 -5 23
11:15 1013 29.91 842 24.86 -0.7 30.7 73 -5 23
11:20 1013 29.91 842 24.86 -0.7 30.8 74 -4.8 23.3
11:25 1013 29.91 842 24.86 -0.5 31 72 -4.9 23.2
11:30 1013 29.91 842 24.86 -0.2 31.6 72 -4.7 23.5
11:35 1013 29.91 842 24.86 -0.2 31.7 72 -4.7 23.6
11:40 1013 29.91 842 24.86 0 32 70 -4.9 23.2
11:45 1013 29.91 842 24.86 0.3 32.6 68 -4.8 23.3
11:50 1013 29.91 842 24.86 0.6 33 69 -4.5 23.8
11:55 1013 29.91 842 24.86 0.9 33.5 67 -4.7 23.6
12:00 1013 29.91 842 24.86 1.1 34 66 -4.5 23.9
12:05 1013 29.91 842 24.86 1.1 34 67 -4.3 24.2
12:10 1013 29.91 842 24.86 0.9 33.5 68 -4.5 23.9
12:15 1013 29.91 842 24.86 1 33.8 68 -4.3 24.2
12:20 1013 29.91 842 24.86 1.3 34.4 66 -4.3 24.3
12:25 1013 29.91 842 24.86 1.6 34.8 65 -4.3 24.3
12:30 1013 29.91 842 24.86 1.9 35.5 64 -4.2 24.4
12:35 1013 29.91 842 24.86 2.2 35.9 64 -3.9 25
12:40 1013 29.91 842 24.86 1.9 35.5 65 -4.1 24.7
12:45 1013 29.91 842 24.86 1.7 35.1 67 -3.9 25.1
12:50 1013 29.91 842 24.86 1.5 34.8 68 -3.7 25.3
12:55 1013 29.91 842 24.86 1.5 34.6 69 -3.6 25.6
13:00 1013 29.91 842 24.86 1.5 34.8 70 -3.4 25.9
13:05 1013 29.91 842 24.86 1.5 34.6 70 -3.5 25.7
13:10 1013 29.91 843 24.89 1.4 34.6 67 -4.1 24.7
13:15 1013 29.91 843 24.89 1.5 34.7 68 -3.7 25.3
13:20 1013 29.91 843 24.89 1.9 35.4 63 -4.4 24.1
13:25 1013 29.91 843 24.89 2.2 36 66 -3.5 25.8
13:30 1013 29.91 843 24.89 2.5 36.5 63 -3.8 25.2
13:35 1013 29.91 843 24.89 2.8 37 64 -3.3 26
13:40 1013 29.91 843 24.89 2.7 36.9 63 -3.6 25.5
13:45 1013 29.91 843 24.89 2.9 37.3 63 -3.3 26
13:50 1013 29.91 843 24.89 2.9 37.1 66 -2.9 26.8
13:55 1013 29.91 843 24.89 2.7 36.9 66 -3 26.6
14:00 1013 29.91 843 24.89 2.7 36.8 67 -2.8 27
14:05 1013 29.91 842 24.86 2.3 36.1 68 -3 26.7
14:10 1013 29.91 842 24.86 2 35.6 70 -2.9 26.7
14:15 1013 29.91 842 24.86 1.8 35.2 72 -2.7 27.1
14:20 1013 29.91 842 24.86 1.7 35.1 72 -2.8 27
14:25 1013 29.91 842 24.86 1.7 35.1 73 -2.7 27.1
14:30 1013 29.91 842 24.86 1.7 35.1 72 -2.8 27
14:35 1013 29.91 842 24.86 1.8 35.2 73 -2.6 27.3
14:40 1013 29.91 842 24.86 1.8 35.3 73 -2.5 27.5
14:45 1013 29.91 842 24.86 1.9 35.5 73 -2.4 27.6
14:50 1013 29.91 842 24.86 2 35.6 71 -2.7 27.1
14:55 1013 29.91 842 24.86 2.2 35.9 70 -2.8 27
15:00 1013 29.91 842 24.86 2.2 36 71 -2.4 27.7
15:05 1013 29.91 842 24.86 2.1 35.8 73 -2.3 27.8
15:10 1013 29.91 842 24.86 2.1 35.7 73 -2.3 27.9
15:15 1013 29.91 842 24.86 2 35.6 74 -2.2 28.1
15:20 1013 29.91 843 24.89 2 35.6 74 -2.2 28.1
15:25 1013 29.91 843 24.89 2 35.7 73 -2.2 28
15:30 1013 29.91 843 24.89 2.1 35.8 74 -2.1 28.1
15:35 1013 29.91 842 24.86 2.1 35.8 72 -2.3 27.8
15:40 1013 29.91 842 24.86 2.1 35.8 73 -2.2 28
15:45 1013 29.91 842 24.86 2.2 35.9 72 -2.3 27.9
15:50 1013 29.91 842 24.86 2.2 36 73 -2.2 28.1
15:55 1013 29.91 842 24.86 2.3 36.2 72 -2.1 28.1
16:00 1013 29.91 842 24.86 2.4 36.4 72 -2.1 28.3
16:05 1013 29.91 842 24.86 2.5 36.6 71 -2.1 28.2
16:10 1013 29.91 842 24.86 2.7 36.8 72 -1.9 28.6
16:15 1013 29.91 842 24.86 2.6 36.7 74 -1.6 29
16:20 1013 29.91 842 24.86 2.5 36.5 75 -1.6 29.2
16:25 1013 29.91 842 24.86 2.6 36.7 74 -1.6 29.1
16:30 1013 29.91 842 24.86 2.8 37 74 -1.3 29.6
16:35 1013 29.91 842 24.86 2.8 37 74 -1.4 29.5
16:40 1013 29.91 842 24.86 2.8 37 75 -1.3 29.7
16:45 1013 29.91 842 24.86 2.7 36.8 76 -1.2 29.9
16:50 1013 29.91 842 24.86 2.5 36.5 77 -1.2 29.9
16:55 1013 29.91 842 24.86 2.4 36.4 77 -1.2 29.9
17:00 1013 29.91 843 24.89 2.4 36.4 77 -1.2 29.8
17:05 1013 29.91 842 24.86 2.4 36.4 77 -1.3 29.7
17:10 1013 29.91 842 24.86 2.4 36.3 77 -1.3 29.6
17:15 1013 29.91 842 24.86 2.3 36.2 76 -1.4 29.5
17:20 1013 29.91 842 24.86 2.3 36.2 77 -1.3 29.6
17:25 1013 29.91 842 24.86 2.2 36 77 -1.3 29.6
17:30 1013 29.91 842 24.86 2.1 35.8 78 -1.3 29.7
17:35 1013 29.91 842 24.86 2 35.7 79 -1.3 29.7
17:40 1013 29.91 842 24.86 2.1 35.7 78 -1.4 29.5
17:45 1013 29.91 842 24.86 2.1 35.7 78 -1.4 29.4
17:50 1013 29.91 842 24.86 2.1 35.8 78 -1.4 29.5
17:55 1013 29.91 842 24.86 2.2 36 76 -1.5 29.3
18:00 1013 29.91 842 24.86 2.2 36 76 -1.5 29.3
18:05 1013 29.91 842 24.86 2.3 36.1 76 -1.5 29.3
18:10 1013 29.91 842 24.86 2.3 36.2 74 -1.8 28.7
18:15 1013 29.91 842 24.86 2.4 36.3 74 -1.7 29
18:20 1013 29.91 842 24.86 2.3 36.2 76 -1.5 29.3
18:25 1013 29.91 842 24.86 2.1 35.9 75 -1.8 28.7
18:30 1013 29.91 842 24.86 2.2 36 74 -1.9 28.5
18:35 1013 29.91 842 24.86 2.2 36 74 -1.9 28.6
18:40 1013 29.91 842 24.86 2.2 36 73 -2.2 28
18:45 1013 29.91 842 24.86 2.2 36 73 -2.1 28.3
18:50 1013 29.91 842 24.86 2.1 35.9 74 -2 28.5
18:55 1013 29.91 842 24.86 2.2 35.9 73 -2.3 27.9
19:00 1013 29.91 842 24.86 2.2 35.9 74 -2 28.5
19:05 1013 29.91 842 24.86 2.2 35.9 75 -1.8 28.8
19:10 1013 29.91 842 24.86 2.1 35.7 75 -1.9 28.5
19:15 1013 29.91 842 24.86 2 35.5 76 -1.9 28.5
19:20 1013 29.91 842 24.86 1.9 35.4 75 -2.1 28.3
19:25 1013 29.91 842 24.86 1.8 35.2 77 -1.9 28.6
19:30 1013 29.91 842 24.86 1.7 35 77 -1.9 28.6
19:35 1013 29.91 842 24.86 1.7 35 78 -1.7 28.9
19:40 1013 29.91 842 24.86 1.7 35 77 -1.9 28.6
19:45 1013 29.91 842 24.86 1.7 35.1 76 -2.1 28.3
19:50 1013 29.91 842 24.86 1.8 35.3 76 -2 28.4
19:55 1013 29.91 842 24.86 1.8 35.3 75 -2.2 28.1
20:00 1013 29.91 842 24.86 1.9 35.4 74 -2.3 27.9
20:05 1013 29.91 842 24.86 2 35.6 73 -2.3 27.9
20:10 1013 29.91 842 24.86 2.1 35.8 73 -2.3 27.8
20:15 1013 29.91 842 24.86 2 35.7 73 -2.2 28
20:20 1013 29.91 842 24.86 1.9 35.4 74 -2.2 28
20:25 1013 29.91 842 24.86 1.9 35.4 74 -2.3 27.9
20:30 1013 29.91 842 24.86 2 35.6 73 -2.4 27.6
20:35 1013 29.91 842 24.86 2 35.6 73 -2.4 27.7
20:40 1013 29.91 842 24.86 2 35.6 72 -2.5 27.5
20:45 1013 29.91 842 24.86 2.1 35.7 72 -2.4 27.7
20:50 1013 29.91 842 24.86 2 35.7 71 -2.7 27.2
20:55 1013 29.91 842 24.86 2.1 35.8 71 -2.6 27.3
21:00 1013 29.91 842 24.86 2.2 35.9 71 -2.6 27.3
21:05 1013 29.91 842 24.86 2.2 36 69 -2.9 26.7
21:10 1013 29.91 842 24.86 2.4 36.3 69 -2.7 27.1
21:15 1013 29.91 842 24.86 2.4 36.3 68 -2.9 26.7
21:20 1013 29.91 842 24.86 2.4 36.4 68 -2.9 26.7
21:25 1013 29.91 842 24.86 2.5 36.4 68 -2.9 26.8
21:30 1013 29.91 842 24.86 2.5 36.4 67 -2.9 26.7
21:35 1013 29.91 842 24.86 2.6 36.6 67 -2.9 26.8
21:40 1013 29.91 842 24.86 2.5 36.4 69 -2.7 27.1
21:45 1013 29.91 842 24.86 2.4 36.4 66 -3.2 26.2
21:50 1013 29.91 842 24.86 2.6 36.6 67 -2.9 26.8
21:55 1013 29.91 842 24.86 2.5 36.4 67 -3 26.7
22:00 1013 29.91 842 24.86 2.5 36.5 69 -2.7 27.1
22:05 1012 29.88 842 24.86 2.4 36.3 69 -2.7 27.2
22:10 1013 29.91 842 24.86 2.4 36.3 68 -3 26.7
22:15 1013 29.91 842 24.86 2.5 36.4 70 -2.5 27.5
22:20 1013 29.91 842 24.86 2.4 36.3 69 -2.8 27
22:25 1013 29.91 842 24.86 2.7 36.8 69 -2.4 27.6
22:30 1013 29.91 842 24.86 2.4 36.3 70 -2.5 27.5
22:35 1013 29.91 842 24.86 2.3 36.1 71 -2.4 27.6
22:40 1013 29.91 842 24.86 2.3 36.1 70 -2.7 27.1
22:45 1013 29.91 842 24.86 2.5 36.4 69 -2.6 27.4
22:50 1013 29.91 842 24.86 2.4 36.4 70 -2.6 27.4
22:55 1013 29.91 842 24.86 2.4 36.4 71 -2.3 27.8
23:00 1013 29.91 842 24.86 2.4 36.3 69 -2.6 27.2
23:05 1013 29.91 842 24.86 2.4 36.3 72 -2.1 28.2
23:10 1013 29.91 842 24.86 2 35.7 75 -2 28.5
23:15 1013 29.91 842 24.86 1.8 35.2 76 -2 28.4
23:20 1013 29.91 842 24.86 1.7 35.1 76 -2.1 28.3
23:25 1013 29.91 842 24.86 1.8 35.3 74 -2.2 28
23:30 1013 29.91 842 24.86 2.1 35.7 75 -2 28.4
23:35 1013 29.91 842 24.86 2.1 35.7 74 -2.1 28.3
23:40 1013 29.91 842 24.86 2.2 36 74 -2 28.4
23:45 1013 29.91 842 24.86 2.3 36.1 73 -2.1 28.2
23:50 1012 29.88 842 24.86 2.3 36.1 74 -1.8 28.7
23:55 1012 29.88 841 24.83 2.1 35.8 75 -1.9 28.6
24:00 1012 29.88 841 24.83 1.9 35.5 77 -1.7 28.9